METAR Formatted Surface Weather Observation
Issued by NWS

Home | Current Version | Previous Version | Text Only | Print | Product List | Glossary On
Versions: 1 2 3
000
SAUS45 KPSR 260857
MTRFHU
METAR KFHU 260856Z AUTO 27004KT 10SM CLR 20/13 A3017 RMK AO2 SLP149
T02000128 58007 $



USA.gov is the U.S. government's official web portal to all federal, state and local government web resources and services.